Time;durP1;ratioP1;P1;durP2;ratioP2;P2;SDS_P1;SDS_P2;PMS_P1;PMS_P2;Temp;Humidity;BMP_temperature;BMP_pressure;BME280_temperature;BME280_humidity;BME280_pressure;Samples;Min_cycle;Max_cycle;Signal;HPM_P1;HPM_P2
2022/04/16 00:00:22;;;;;;;5.17;2.67;;;;;;;7.83;87.45;99516.69;5093041;28;20183;-55
2022/04/16 00:02:49;;;;;;;6.63;3.00;;;;;;;7.77;88.25;99520.53;5093933;28;20647;-55
2022/04/16 00:05:16;;;;;;;7.13;3.30;;;;;;;7.76;88.31;99516.28;5093565;28;20227;-55
2022/04/16 00:07:44;;;;;;;3.57;2.30;;;;;;;7.73;87.86;99520.88;5093854;28;20177;-55
2022/04/16 00:10:11;;;;;;;4.93;2.80;;;;;;;7.66;88.49;99517.88;5092875;28;20203;-56
2022/04/16 00:12:38;;;;;;;5.33;2.80;;;;;;;7.62;89.27;99517.28;5093599;28;20801;-55
2022/04/16 00:15:06;;;;;;;3.30;2.73;;;;;;;7.58;89.43;99515.84;5093700;28;20220;-55
2022/04/16 00:17:36;;;;;;;4.47;2.70;;;;;;;7.57;88.74;99515.94;5093599;28;20195;-55
2022/04/16 00:20:09;;;;;;;4.43;2.73;;;;;;;7.56;88.22;99520.31;5092606;28;20186;-55
2022/04/16 00:22:36;;;;;;;6.27;3.20;;;;;;;7.47;88.66;99524.38;5093541;28;20165;-55
2022/04/16 00:25:05;;;;;;;3.60;2.60;;;;;;;7.47;88.46;99521.78;5093372;28;20204;-55
2022/04/16 00:27:34;;;;;;;4.40;2.57;;;;;;;7.41;88.47;99524.00;5093284;28;20195;-55
2022/04/16 00:30:01;;;;;;;5.60;2.60;;;;;;;7.42;88.67;99526.47;5092473;28;20714;-55
2022/04/16 00:32:28;;;;;;;4.37;2.50;;;;;;;7.39;90.16;99516.34;5093041;28;20303;-55
2022/04/16 00:34:54;;;;;;;5.43;2.77;;;;;;;7.30;89.55;99524.78;5093185;28;20723;-55
2022/04/16 00:37:21;;;;;;;4.57;2.50;;;;;;;7.44;90.90;99514.22;5093393;28;20647;-55
2022/04/16 00:39:48;;;;;;;4.07;2.50;;;;;;;7.35;89.62;99517.50;5092295;28;20194;-55
2022/04/16 00:42:16;;;;;;;7.53;2.37;;;;;;;7.23;89.46;99514.81;5093072;28;20197;-55
2022/04/16 00:44:43;;;;;;;3.87;2.67;;;;;;;7.22;89.93;99514.91;5092875;28;20261;-55
2022/04/16 00:47:12;;;;;;;4.53;2.90;;;;;;;7.18;89.73;99516.91;5092955;28;20815;-55
2022/04/16 00:49:39;;;;;;;4.30;2.47;;;;;;;7.20;89.02;99516.78;5092385;28;20187;-55
2022/04/16 00:52:08;;;;;;;3.83;2.20;;;;;;;7.16;88.70;99513.56;5092969;28;20260;-55
2022/04/16 00:54:35;;;;;;;4.83;2.20;;;;;;;7.18;89.05;99506.50;5092609;28;20254;-55
2022/04/16 00:57:02;;;;;;;5.67;2.30;;;;;;;7.16;87.78;99505.78;5092964;28;20191;-55
2022/04/16 00:59:30;;;;;;;4.33;2.33;;;;;;;7.16;89.05;99513.56;5092407;28;20674;-55
2022/04/16 01:01:59;;;;;;;3.80;2.57;;;;;;;7.13;88.99;99512.94;5091840;28;20189;-55
2022/04/16 01:04:27;;;;;;;3.93;2.60;;;;;;;7.06;89.77;99521.16;5092600;28;20652;-55
2022/04/16 01:06:55;;;;;;;3.07;2.43;;;;;;;7.06;89.35;99510.78;5092634;28;20189;-55
2022/04/16 01:09:22;;;;;;;5.10;2.90;;;;;;;7.14;89.22;99512.84;5092585;28;20266;-55
2022/04/16 01:11:50;;;;;;;5.63;2.80;;;;;;;7.18;89.44;99503.91;5091638;28;20220;-55
2022/04/16 01:14:19;;;;;;;2.87;2.37;;;;;;;7.14;88.41;99499.88;5092289;28;20208;-54
2022/04/16 01:16:47;;;;;;;6.00;2.50;;;;;;;7.12;89.65;99500.91;5092489;28;20674;-54
2022/04/16 01:19:14;;;;;;;3.57;2.70;;;;;;;7.05;90.40;99503.94;5092388;28;20200;-55
2022/04/16 01:21:41;;;;;;;5.13;2.60;;;;;;;7.07;89.88;99502.06;5091740;28;20190;-56
2022/04/16 01:24:09;;;;;;;3.00;2.27;;;;;;;7.08;89.60;99502.91;5092367;28;20184;-55
2022/04/16 01:26:38;;;;;;;3.47;2.57;;;;;;;7.12;88.74;99503.50;5092137;28;20687;-55
2022/04/16 01:29:04;;;;;;;4.40;2.43;;;;;;;7.04;88.17;99502.25;5092284;28;20267;-55
2022/04/16 01:31:31;;;;;;;3.47;2.23;;;;;;;7.00;87.33;99502.59;5091538;28;20229;-55
2022/04/16 01:33:58;;;;;;;3.80;3.07;;;;;;;6.92;88.44;99496.16;5092122;28;20215;-55
2022/04/16 01:36:29;;;;;;;6.37;2.83;;;;;;;6.94;87.77;99506.44;5092321;28;20717;-55
2022/04/16 01:38:56;;;;;;;3.17;2.50;;;;;;;7.09;87.93;99500.19;5092468;28;20210;-55
2022/04/16 01:41:25;;;;;;;5.70;2.60;;;;;;;7.01;88.42;99509.44;5091301;28;20196;-55
2022/04/16 01:43:54;;;;;;;4.63;2.60;;;;;;;7.11;88.42;99501.84;5092141;28;20206;-55
2022/04/16 01:46:21;;;;;;;4.93;2.43;;;;;;;7.11;88.28;99505.28;5092042;28;20213;-55
2022/04/16 01:48:49;;;;;;;2.70;2.27;;;;;;;7.11;89.13;99504.44;5092064;28;20199;-55
2022/04/16 01:51:17;;;;;;;3.53;2.73;;;;;;;7.36;87.10;99509.56;5091203;28;20206;-55
2022/04/16 01:53:44;;;;;;;5.17;2.70;;;;;;;7.20;87.36;99501.19;5091750;28;20212;-55
2022/04/16 01:56:11;;;;;;;4.00;2.17;;;;;;;7.21;88.16;99497.66;5091646;28;20207;-55
2022/04/16 01:58:41;;;;;;;4.97;2.30;;;;;;;7.03;89.03;99502.38;5091957;28;20188;-55
2022/04/16 02:01:08;;;;;;;3.63;2.60;;;;;;;6.94;88.49;99502.09;5091187;28;20191;-55
2022/04/16 02:03:36;;;;;;;6.27;2.60;;;;;;;6.81;89.09;99503.84;5092194;28;20198;-55
2022/04/16 02:06:04;;;;;;;3.30;2.20;;;;;;;6.68;89.34;99509.06;5091695;28;20278;-55
2022/04/16 02:08:31;;;;;;;4.63;2.63;;;;;;;6.58;88.79;99501.06;5092048;28;20199;-55
2022/04/16 02:10:58;;;;;;;3.20;2.20;;;;;;;6.50;89.09;99506.78;5091088;28;20192;-55
2022/04/16 02:13:25;;;;;;;4.17;2.50;;;;;;;6.43;89.22;99504.69;5094943;28;20232;-55
2022/04/16 02:15:54;;;;;;;4.30;2.57;;;;;;;6.39;89.00;99511.00;5095846;28;20206;-55
2022/04/16 02:18:21;;;;;;;4.07;2.70;;;;;;;6.35;90.83;99506.03;5095847;28;20644;-55
2022/04/16 02:20:48;;;;;;;3.77;2.40;;;;;;;6.38;92.30;99509.34;5094860;28;20536;-55
2022/04/16 02:23:14;;;;;;;3.80;2.60;;;;;;;6.32;89.91;99502.81;5095760;28;20254;-55
2022/04/16 02:25:43;;;;;;;3.80;2.30;;;;;;;6.25;90.44;99502.41;5095661;28;20270;-55
2022/04/16 02:28:10;;;;;;;4.13;2.67;;;;;;;6.17;91.00;99502.88;5095682;28;20273;-55
2022/04/16 02:30:40;;;;;;;4.43;2.57;;;;;;;6.17;91.75;99505.47;5095221;28;20192;-55
2022/04/16 02:33:10;;;;;;;5.27;2.67;;;;;;;6.18;90.41;99503.72;5095423;28;20198;-55
2022/04/16 02:35:37;;;;;;;4.47;2.77;;;;;;;6.09;91.30;99494.78;5095491;28;20692;-55
2022/04/16 02:38:04;;;;;;;4.70;2.50;;;;;;;6.00;91.29;99492.75;5095440;28;20187;-55
2022/04/16 02:40:30;;;;;;;2.67;2.37;;;;;;;6.00;91.74;99497.94;5094713;28;20240;-55
2022/04/16 02:42:57;;;;;;;4.73;2.40;;;;;;;5.94;91.75;99511.28;5095418;28;20192;-55
2022/04/16 02:48:10;;;;;;;3.07;2.13;;;;;;;5.88;91.50;99509.94;5095360;28;20202;-55
2022/04/16 02:50:36;;;;;;;4.33;2.50;;;;;;;5.88;92.07;99502.97;5094448;28;20190;-55
2022/04/16 02:53:03;;;;;;;3.10;2.20;;;;;;;5.96;92.33;99517.22;5095052;28;20191;-55
2022/04/16 02:55:30;;;;;;;4.17;2.47;;;;;;;6.07;93.03;99516.56;5094945;28;20219;-55
2022/04/16 02:57:57;;;;;;;3.27;2.30;;;;;;;6.58;89.43;99529.59;5095101;28;20192;-55
2022/04/16 03:00:25;;;;;;;5.23;2.63;;;;;;;6.95;85.79;99521.06;5094064;28;20712;-55
2022/04/16 03:02:52;;;;;;;2.67;1.83;;;;;;;6.70;87.88;99527.94;5095020;28;20217;-55
2022/04/16 03:05:21;;;;;;;2.23;1.83;;;;;;;6.52;87.66;99519.63;5094872;28;20264;-55
2022/04/16 03:07:48;;;;;;;3.80;2.20;;;;;;;6.36;88.23;99522.41;5094967;28;20236;-55
2022/04/16 03:10:15;;;;;;;4.57;2.53;;;;;;;6.19;88.72;99519.16;5094077;28;20188;-56
2022/04/16 03:12:46;;;;;;;5.17;2.40;;;;;;;6.11;89.45;99523.22;5094655;28;20223;-55
2022/04/16 03:18:00;;;;;;;3.03;2.10;;;;;;;5.95;90.51;99526.75;5094801;28;20175;-55
2022/04/16 03:20:29;;;;;;;5.33;2.33;;;;;;;5.96;89.82;99530.16;5094126;28;20198;-55
2022/04/16 03:22:56;;;;;;;3.87;2.90;;;;;;;5.99;89.99;99528.22;5094796;28;20274;-55
2022/04/16 03:25:23;;;;;;;5.37;2.70;;;;;;;6.18;88.34;99532.25;5093669;28;20759;-55
2022/04/16 03:27:50;;;;;;;4.50;2.77;;;;;;;6.39;88.61;99531.75;5094573;28;20195;-55
2022/04/16 03:30:17;;;;;;;4.60;3.10;;;;;;;6.58;86.83;99526.19;5093661;28;20186;-55
2022/04/16 03:32:47;;;;;;;3.87;2.83;;;;;;;6.53;86.23;99517.88;5094360;28;20192;-55
2022/04/16 03:35:14;;;;;;;3.30;2.60;;;;;;;6.50;86.85;99518.91;5094712;28;20222;-55
2022/04/16 03:37:42;;;;;;;3.53;2.70;;;;;;;6.47;86.65;99514.75;5094299;28;20271;-55
2022/04/16 03:40:12;;;;;;;3.33;2.80;;;;;;;6.51;87.03;99515.38;5093558;28;20209;-55
2022/04/16 03:42:45;;;;;;;4.20;3.03;;;;;;;6.52;85.72;99524.00;5094272;28;20660;-55
2022/04/16 03:45:18;;;;;;;4.03;2.87;;;;;;;6.51;86.41;99520.56;5094218;28;20203;-55
2022/04/16 03:47:45;;;;;;;4.40;3.40;;;;;;;6.77;84.38;99521.41;5094362;28;20194;-55
2022/04/16 03:50:13;;;;;;;4.47;2.83;;;;;;;6.63;84.25;99511.94;5093170;28;20524;-55
2022/04/16 03:52:41;;;;;;;3.83;2.97;;;;;;;6.55;84.65;99518.59;5093367;28;20452;-55
2022/04/16 04:00:43;;;;;;;6.30;3.17;;;;;;;6.43;86.46;99509.84;5092994;28;20184;-55
2022/04/16 04:03:09;;;;;;;4.07;2.73;;;;;;;6.35;86.60;99510.38;5094017;28;20478;-55
2022/04/16 04:05:37;;;;;;;3.60;2.83;;;;;;;6.22;87.18;99510.38;5093686;28;20219;-55
2022/04/16 04:08:05;;;;;;;4.23;3.00;;;;;;;6.14;87.59;99516.03;5093711;28;20712;-55
2022/04/16 04:10:33;;;;;;;4.30;2.80;;;;;;;6.07;87.09;99524.34;5093012;28;20246;-55
2022/04/16 04:13:01;;;;;;;6.37;3.20;;;;;;;6.08;88.13;99528.59;5093643;28;20195;-55
2022/04/16 04:15:29;;;;;;;4.30;3.13;;;;;;;6.00;88.32;99529.91;5093384;28;20266;-55
2022/04/16 04:17:56;;;;;;;3.67;2.80;;;;;;;5.97;88.52;99535.25;5093626;28;20190;-55
2022/04/16 04:20:23;;;;;;;3.70;2.73;;;;;;;6.02;88.48;99546.19;5091378;28;20243;-55
2022/04/16 04:22:50;;;;;;;4.50;3.00;;;;;;;5.91;89.40;99551.22;5093476;28;20222;-55
2022/04/16 04:25:16;;;;;;;7.40;3.23;;;;;;;5.83;89.36;99553.44;5093345;28;20278;-55
2022/04/16 04:27:45;;;;;;;6.03;2.80;;;;;;;5.85;88.35;99557.59;5093347;28;20183;-55
2022/04/16 04:30:12;;;;;;;3.53;2.63;;;;;;;5.81;89.09;99557.91;5092509;28;20197;-55
2022/04/16 04:32:39;;;;;;;3.93;2.57;;;;;;;5.84;89.45;99558.53;5093408;28;20205;-55
2022/04/16 04:35:07;;;;;;;6.00;3.07;;;;;;;5.82;89.97;99567.34;5092599;28;20234;-55
2022/04/16 04:37:34;;;;;;;5.27;2.60;;;;;;;5.82;89.59;99568.19;5092646;28;20190;-55
2022/04/16 04:40:01;;;;;;;4.13;3.03;;;;;;;5.83;88.50;99559.44;5092478;28;20190;-55
2022/04/16 04:42:29;;;;;;;4.93;3.00;;;;;;;5.89;88.66;99566.84;5093113;28;20183;-55
2022/04/16 04:44:58;;;;;;;5.50;2.87;;;;;;;5.91;88.09;99556.38;5093173;28;20203;-55
2022/04/16 04:47:25;;;;;;;4.07;2.40;;;;;;;6.03;87.01;99557.38;5093061;28;20180;-55
2022/04/16 04:49:52;;;;;;;3.77;2.53;;;;;;;6.13;85.73;99563.63;5092089;28;20197;-55
2022/04/16 04:52:26;;;;;;;3.73;2.70;;;;;;;6.09;86.02;99569.94;5092912;28;20659;-55
2022/04/16 04:54:54;;;;;;;3.90;2.43;;;;;;;6.19;85.06;99568.44;5092654;28;20234;-55
2022/04/16 04:57:21;;;;;;;3.77;2.30;;;;;;;6.44;83.66;99571.16;5092869;28;20187;-55
2022/04/16 04:59:47;;;;;;;3.30;2.43;;;;;;;6.35;83.98;99576.06;5092138;28;20624;-55
2022/04/16 05:02:16;;;;;;;3.67;2.83;;;;;;;6.36;84.18;99574.28;5092756;28;20218;-55
2022/04/16 05:04:43;;;;;;;4.40;2.60;;;;;;;6.25;84.88;99569.81;5092723;28;20230;-55
2022/04/16 05:07:10;;;;;;;2.70;2.10;;;;;;;6.19;85.08;99572.78;5092631;28;20188;-55
2022/04/16 05:09:37;;;;;;;3.30;2.50;;;;;;;6.20;85.86;99575.28;5091639;28;20655;-55
2022/04/16 05:12:05;;;;;;;4.40;2.23;;;;;;;6.18;86.42;99576.31;5092537;28;20210;-55
2022/04/16 05:14:33;;;;;;;3.03;2.00;;;;;;;6.17;85.37;99569.47;5092442;28;20265;-55
2022/04/16 05:17:00;;;;;;;5.03;2.53;;;;;;;6.32;82.60;99578.84;5092513;28;20659;-55
2022/04/16 05:19:29;;;;;;;3.87;2.50;;;;;;;6.50;81.84;99581.16;5092282;28;20191;-55
2022/04/16 05:21:56;;;;;;;3.10;2.10;;;;;;;6.53;82.06;99586.13;5091796;28;20189;-55
2022/04/16 05:24:23;;;;;;;3.43;2.13;;;;;;;6.67;80.83;99587.00;5092306;28;20214;-55
2022/04/16 05:26:50;;;;;;;3.07;2.03;;;;;;;6.75;80.09;99589.91;5092355;28;20186;-55
2022/04/16 05:29:17;;;;;;;4.37;2.97;;;;;;;6.86;79.16;99586.59;5090954;28;20564;-55
2022/04/16 05:31:44;;;;;;;3.47;2.10;;;;;;;7.14;75.78;99598.53;5091547;28;20191;-55
2022/04/16 05:34:20;;;;;;;3.03;2.17;;;;;;;7.31;76.54;99593.97;5092290;28;20696;-55
2022/04/16 05:36:49;;;;;;;6.50;4.00;;;;;;;7.28;76.88;99591.56;5092204;28;20200;-55
2022/04/16 05:39:16;;;;;;;5.20;2.50;;;;;;;7.16;77.92;99596.66;5092194;28;20191;-55
2022/04/16 05:41:44;;;;;;;2.90;2.10;;;;;;;7.18;77.25;99596.56;5091400;28;20187;-56
2022/04/16 05:44:11;;;;;;;3.80;2.00;;;;;;;7.28;75.92;99605.38;5092140;28;20176;-55
2022/04/16 05:46:38;;;;;;;5.33;4.37;;;;;;;7.32;75.75;99598.22;5091756;28;20757;-56
2022/04/16 05:49:05;;;;;;;3.97;1.93;;;;;;;7.26;77.06;99604.66;5092016;28;20184;-55
2022/04/16 05:51:32;;;;;;;2.70;1.80;;;;;;;7.26;77.77;99607.25;5091250;28;20179;-55
2022/04/16 05:54:02;;;;;;;2.17;1.60;;;;;;;7.14;79.15;99618.47;5091997;28;20184;-56
2022/04/16 05:56:30;;;;;;;3.43;1.90;;;;;;;7.05;79.18;99617.34;5091927;28;20283;-55
2022/04/16 05:58:57;;;;;;;3.60;1.60;;;;;;;7.09;79.90;99616.19;5091919;28;20215;-55
2022/04/16 06:01:24;;;;;;;1.77;1.30;;;;;;;7.02;80.13;99626.16;5091157;28;20184;-55
2022/04/16 06:03:51;;;;;;;2.77;1.80;;;;;;;7.17;77.59;99626.03;5091805;28;20270;-55
2022/04/16 06:06:18;;;;;;;2.10;1.90;;;;;;;7.11;78.96;99626.47;5091799;28;20212;-55
2022/04/16 06:08:44;;;;;;;2.27;1.90;;;;;;;7.14;78.58;99629.69;5091988;28;20191;-55
2022/04/16 06:11:17;;;;;;;2.63;1.80;;;;;;;7.08;78.86;99630.94;5091039;28;20197;-55
2022/04/16 06:13:43;;;;;;;5.30;2.10;;;;;;;7.07;80.64;99626.66;5091826;28;20663;-55
2022/04/16 06:16:10;;;;;;;2.17;1.70;;;;;;;7.21;78.41;99633.53;5091524;28;20219;-56
2022/04/16 06:18:37;;;;;;;2.13;1.40;;;;;;;7.18;79.56;99638.94;5091752;28;20192;-55
2022/04/16 06:21:04;;;;;;;3.90;1.90;;;;;;;7.36;76.52;99639.44;5091168;28;20183;-55
2022/04/16 06:23:31;;;;;;;2.27;1.80;;;;;;;7.58;76.76;99647.50;5091790;28;20194;-55
2022/04/16 06:25:58;;;;;;;1.93;1.50;;;;;;;7.78;74.54;99651.34;5090397;28;20591;-55
2022/04/16 06:28:27;;;;;;;3.23;2.10;;;;;;;8.31;70.18;99643.25;5091894;28;20718;-55
2022/04/16 06:30:54;;;;;;;2.93;1.80;;;;;;;8.47;70.31;99647.34;5090681;28;20625;-55
2022/04/16 06:33:21;;;;;;;2.90;2.10;;;;;;;8.44;71.62;99648.38;5091988;28;20192;-55
2022/04/16 06:35:47;;;;;;;4.10;2.00;;;;;;;8.55;70.34;99650.22;5091550;28;20743;-55
2022/04/16 06:38:14;;;;;;;3.23;2.17;;;;;;;8.59;70.54;99656.06;5091542;28;20175;-56
2022/04/16 06:40:41;;;;;;;4.83;1.87;;;;;;;8.64;71.33;99653.94;5090781;28;20192;-55
2022/04/16 06:43:08;;;;;;;2.60;1.70;;;;;;;8.60;72.92;99663.72;5091478;28;20197;-56
2022/04/16 06:45:36;;;;;;;3.07;2.03;;;;;;;8.58;72.22;99660.41;5090115;28;20696;-56
2022/04/16 06:48:03;;;;;;;4.87;2.10;;;;;;;8.72;71.51;99651.59;5091425;28;20186;-56
2022/04/16 06:50:30;;;;;;;2.73;2.10;;;;;;;8.80;72.47;99657.06;5090750;28;20192;-56
2022/04/16 06:52:57;;;;;;;2.13;1.63;;;;;;;8.85;74.22;99665.38;5091929;28;20196;-56
2022/04/16 06:55:24;;;;;;;2.87;1.70;;;;;;;8.99;72.34;99663.53;5091313;28;20273;-56
2022/04/16 06:57:52;;;;;;;2.50;2.00;;;;;;;9.13;71.40;99670.28;5091284;28;20658;-56
2022/04/16 07:00:19;;;;;;;2.50;1.93;;;;;;;9.20;73.81;99676.69;5093308;28;20675;-55
2022/04/16 07:02:47;;;;;;;5.87;1.60;;;;;;;9.35;73.13;99679.91;5094990;28;20189;-56
2022/04/16 07:05:14;;;;;;;2.80;1.83;;;;;;;9.47;71.48;99680.75;5094953;28;20215;-56
2022/04/16 07:07:41;;;;;;;4.13;2.20;;;;;;;9.58;68.65;99669.50;5095050;28;20192;-56
2022/04/16 07:10:08;;;;;;;2.53;1.90;;;;;;;9.80;66.96;99671.25;5094035;28;20188;-56
2022/04/16 07:12:36;;;;;;;2.97;2.03;;;;;;;10.04;64.66;99671.13;5094702;28;20185;-56
2022/04/16 07:15:03;;;;;;;2.70;1.90;;;;;;;10.33;64.18;99674.97;5094680;28;20281;-56
2022/04/16 07:17:30;;;;;;;3.40;2.07;;;;;;;10.42;63.45;99681.22;5094682;28;20189;-56
2022/04/16 07:19:58;;;;;;;3.40;1.90;;;;;;;10.80;63.21;99679.06;5093951;28;20196;-56
2022/04/16 07:22:24;;;;;;;3.67;2.43;;;;;;;11.06;60.64;99682.16;5094768;28;20207;-56
2022/04/16 07:24:51;;;;;;;3.53;2.40;;;;;;;11.23;58.32;99681.53;5094451;28;20204;-56
2022/04/16 07:27:18;;;;;;;3.57;2.33;;;;;;;11.27;57.00;99684.75;5094563;28;20200;-56
2022/04/16 07:29:46;;;;;;;2.87;2.00;;;;;;;11.32;57.02;99679.94;5093897;28;20189;-56
2022/04/16 07:32:13;;;;;;;2.87;2.30;;;;;;;11.46;57.82;99689.22;5094743;28;20184;-56
2022/04/16 07:34:40;;;;;;;2.83;2.10;;;;;;;11.39;57.50;99690.72;5094342;28;20680;-56
2022/04/16 07:37:09;;;;;;;3.40;2.20;;;;;;;11.23;56.00;99694.59;5094403;28;20205;-56
2022/04/16 07:39:36;;;;;;;4.23;1.80;;;;;;;11.27;57.37;99700.41;5093563;28;20189;-56
2022/04/16 07:42:03;;;;;;;2.30;1.80;;;;;;;11.25;57.53;99697.09;5094336;28;20178;-56
2022/04/16 07:44:30;;;;;;;2.13;1.83;;;;;;;11.35;55.65;99711.06;5094253;28;20659;-56
2022/04/16 07:46:56;;;;;;;2.80;1.80;;;;;;;11.42;55.28;99702.69;5094166;28;20189;-56
2022/04/16 07:49:23;;;;;;;2.03;1.63;;;;;;;11.28;54.86;99707.31;5094532;28;20211;-56
2022/04/16 07:51:50;;;;;;;2.00;1.63;;;;;;;11.39;54.01;99714.22;5093332;28;20233;-56
2022/04/16 07:54:18;;;;;;;2.47;1.70;;;;;;;11.47;54.96;99711.00;5092590;28;20620;-56
2022/04/16 07:56:45;;;;;;;2.53;1.77;;;;;;;11.67;54.15;99715.31;5093752;28;20206;-56
2022/04/16 07:59:12;;;;;;;2.87;1.80;;;;;;;11.81;52.14;99715.94;5094011;28;20238;-55
2022/04/16 08:01:39;;;;;;;2.63;1.80;;;;;;;11.65;52.74;99719.88;5092725;28;20421;-55
2022/04/16 08:04:06;;;;;;;2.00;1.70;;;;;;;12.09;53.22;99713.59;5093854;28;20417;-55
2022/04/16 08:06:32;;;;;;;2.33;1.80;;;;;;;12.19;51.11;99716.25;5093614;28;20206;-55
2022/04/16 08:09:01;;;;;;;3.93;1.40;;;;;;;12.17;51.14;99721.59;5093781;28;20665;-55
2022/04/16 08:11:31;;;;;;;3.63;1.77;;;;;;;12.30;50.62;99726.56;5092706;28;20186;-55
2022/04/16 08:13:58;;;;;;;1.63;1.40;;;;;;;12.71;51.30;99739.59;5093695;28;20177;-55
2022/04/16 08:16:25;;;;;;;2.10;1.60;;;;;;;12.63;48.30;99739.47;5093496;28;20206;-55
2022/04/16 08:18:52;;;;;;;2.67;1.50;;;;;;;12.68;50.62;99726.78;5093598;28;20653;-55
2022/04/16 08:21:20;;;;;;;4.20;1.70;;;;;;;13.21;48.04;99727.28;5092716;28;20685;-55
2022/04/16 08:23:56;;;;;;;2.83;1.80;;;;;;;13.54;48.40;99739.09;5093479;28;20201;-55
2022/04/16 08:26:23;;;;;;;1.90;1.57;;;;;;;13.16;47.65;99753.09;5093558;28;20198;-55
2022/04/16 08:28:51;;;;;;;2.53;1.73;;;;;;;12.87;47.75;99749.53;5093464;28;20547;-55
2022/04/16 08:31:18;;;;;;;2.30;1.90;;;;;;;13.19;46.64;99740.53;5092375;28;20180;-55
2022/04/16 08:33:45;;;;;;;7.40;3.97;;;;;;;13.06;46.61;99756.53;5093023;28;20191;-55
2022/04/16 08:36:12;;;;;;;34.23;15.80;;;;;;;12.89;46.85;99757.22;5093146;28;20671;-55
2022/04/16 08:38:39;;;;;;;5.20;3.53;;;;;;;13.34;45.68;99754.03;5093265;28;20560;-55
2022/04/16 08:41:07;;;;;;;2.63;2.00;;;;;;;13.20;47.87;99762.34;5092315;28;20650;-55
2022/04/16 08:43:34;;;;;;;3.60;2.67;;;;;;;13.21;46.28;99766.59;5093183;28;20192;-54
2022/04/16 08:46:04;;;;;;;3.73;2.60;;;;;;;13.25;45.79;99775.84;5092864;28;20200;-55
2022/04/16 08:48:31;;;;;;;4.10;2.37;;;;;;;12.83;47.55;99764.69;5093008;28;20190;-55
2022/04/16 08:50:59;;;;;;;3.27;2.43;;;;;;;12.85;47.65;99765.38;5092299;28;20207;-55
2022/04/16 08:53:26;;;;;;;3.20;2.47;;;;;;;13.42;48.61;99764.69;5093035;28;20221;-55
2022/04/16 08:55:52;;;;;;;3.60;2.50;;;;;;;13.78;45.68;99761.41;5092598;28;20216;-55
2022/04/16 08:58:20;;;;;;;3.13;2.53;;;;;;;13.79;46.87;99775.34;5092955;28;20233;-55
2022/04/16 09:00:47;;;;;;;2.83;2.03;;;;;;;14.14;45.70;99768.56;5091824;28;20219;-55
2022/04/16 09:03:15;;;;;;;3.77;2.70;;;;;;;13.71;43.87;99761.16;5092775;28;20198;-55
2022/04/16 09:05:42;;;;;;;6.27;2.40;;;;;;;12.91;47.09;99771.03;5092612;28;20610;-55
2022/04/16 09:08:09;;;;;;;3.30;2.17;;;;;;;13.30;45.99;99763.16;5092616;28;20185;-55
2022/04/16 09:10:39;;;;;;;4.57;2.70;;;;;;;13.17;46.36;99770.47;5091789;28;20195;-55
2022/04/16 09:13:06;;;;;;;3.53;2.63;;;;;;;13.12;46.05;99766.47;5092545;28;20188;-55
2022/04/16 09:15:35;;;;;;;4.83;2.40;;;;;;;13.44;45.43;99761.91;5092552;28;20208;-54
2022/04/16 09:18:03;;;;;;;3.73;2.27;;;;;;;13.55;46.45;99767.00;5092570;28;20274;-55
2022/04/16 09:20:33;;;;;;;3.20;2.10;;;;;;;14.30;46.18;99750.38;5091896;28;20181;-55
2022/04/16 09:23:00;;;;;;;3.00;2.07;;;;;;;14.65;42.90;99755.00;5091927;28;20210;-55
2022/04/16 09:25:31;;;;;;;3.07;1.83;;;;;;;14.41;43.29;99778.22;5092387;28;20200;-55
2022/04/16 09:27:59;;;;;;;4.53;1.70;;;;;;;14.20;43.15;99765.34;5092275;28;20230;-55
2022/04/16 09:30:28;;;;;;;3.90;2.17;;;;;;;13.81;43.96;99757.66;5091661;28;20269;-54
2022/04/16 09:32:57;;;;;;;2.70;2.13;;;;;;;13.73;46.06;99756.59;5092272;28;20717;-55
2022/04/16 09:35:33;;;;;;;3.13;1.70;;;;;;;13.45;45.08;99758.31;5092278;28;20238;-55
2022/04/16 09:38:02;;;;;;;3.67;2.30;;;;;;;13.41;45.61;99754.28;5092455;28;20676;-55
2022/04/16 09:40:30;;;;;;;8.07;2.57;;;;;;;13.47;46.74;99753.75;5091296;28;20196;-54
2022/04/16 09:43:01;;;;;;;3.70;2.40;;;;;;;13.51;45.41;99746.44;5092291;28;20273;-55
2022/04/16 09:45:28;;;;;;;4.53;2.40;;;;;;;13.55;45.98;99737.31;5092031;28;20196;-55
2022/04/16 09:47:56;;;;;;;2.87;1.93;;;;;;;13.09;47.82;99744.97;5092059;28;20187;-55
2022/04/16 09:50:25;;;;;;;4.67;2.27;;;;;;;12.82;48.58;99749.91;5091511;28;20240;-55
2022/04/16 09:52:55;;;;;;;3.30;2.33;;;;;;;13.05;48.87;99752.28;5091868;28;20186;-54
2022/04/16 09:55:24;;;;;;;3.20;2.30;;;;;;;12.88;47.22;99745.09;5091852;28;20215;-55
2022/04/16 09:57:53;;;;;;;3.57;2.40;;;;;;;13.28;46.39;99733.63;5091926;28;20210;-54
2022/04/16 10:00:21;;;;;;;3.10;2.03;;;;;;;13.31;46.41;99749.06;5091602;28;20668;-55
2022/04/16 10:02:48;;;;;;;3.67;2.20;;;;;;;13.24;47.36;99732.25;5091903;28;20194;-54
2022/04/16 10:05:16;;;;;;;2.70;2.00;;;;;;;13.60;47.41;99737.72;5091681;28;20733;-54
2022/04/16 10:07:44;;;;;;;2.63;1.90;;;;;;;13.69;46.42;99734.25;5091902;28;20211;-54
2022/04/16 10:10:30;;;;;;;5.37;2.40;;;;;;;13.79;47.22;99730.72;5090972;28;20205;-55
2022/04/16 10:13:01;;;;;;;2.90;2.03;;;;;;;14.00;46.33;99730.50;5091789;28;20175;-55
2022/04/16 10:15:39;;;;;;;2.90;2.10;;;;;;;13.91;46.90;99745.31;5091715;28;20304;-54
2022/04/16 10:18:06;;;;;;;2.57;1.70;;;;;;;13.74;45.45;99749.53;5091842;28;20253;-55
2022/04/16 10:20:33;;;;;;;3.20;1.97;;;;;;;13.69;45.95;99760.47;5090930;28;20192;-55
2022/04/16 10:23:03;;;;;;;4.53;2.30;;;;;;;13.41;46.33;99762.16;5091759;28;20751;-55
2022/04/16 10:25:34;;;;;;;3.93;2.73;;;;;;;13.35;46.70;99745.19;5091822;28;20244;-54
2022/04/16 10:28:03;;;;;;;3.37;2.43;;;;;;;13.43;46.68;99744.50;5091920;28;20625;-53
2022/04/16 10:30:36;;;;;;;3.43;2.40;;;;;;;13.36;47.04;99751.25;5090973;28;20192;-53
2022/04/16 10:33:15;;;;;;;2.70;1.70;;;;;;;13.63;46.70;99758.41;5091814;28;20188;-54
2022/04/16 10:35:49;;;;;;;3.03;2.10;;;;;;;14.01;46.06;99756.59;5094958;28;20207;-54
2022/04/16 10:38:22;;;;;;;3.07;2.50;;;;;;;14.02;46.23;99762.69;5095618;28;20191;-54
2022/04/16 10:40:57;;;;;;;3.17;2.37;;;;;;;14.20;47.19;99754.84;5094736;28;20651;-54
2022/04/16 10:43:32;;;;;;;4.93;1.80;;;;;;;14.54;46.06;99764.75;5095504;28;20248;-54
2022/04/16 10:46:03;;;;;;;3.30;2.00;;;;;;;15.15;46.81;99759.72;5095239;28;20262;-54
2022/04/16 10:48:33;;;;;;;3.73;2.57;;;;;;;15.20;45.31;99775.88;5095198;28;20186;-55
2022/04/16 10:51:01;;;;;;;3.20;2.53;;;;;;;14.97;43.85;99769.44;5094508;28;20258;-54
2022/04/16 10:53:29;;;;;;;4.50;2.40;;;;;;;13.90;46.10;99769.09;5095194;28;20194;-54
2022/04/16 10:56:06;;;;;;;3.37;2.37;;;;;;;13.96;47.14;99758.84;5095070;28;20253;-55
2022/04/16 10:58:33;;;;;;;5.57;2.50;;;;;;;13.39;47.71;99764.94;5095168;28;20229;-54
2022/04/16 11:01:08;;;;;;;3.10;2.33;;;;;;;13.81;48.61;99752.41;5094231;28;20248;-54
2022/04/16 11:03:43;;;;;;;4.03;2.40;;;;;;;13.53;47.54;99753.19;5094970;28;20205;-53
2022/04/16 11:06:10;;;;;;;3.07;2.47;;;;;;;14.25;47.43;99754.44;5095232;28;20683;-55
2022/04/16 11:08:39;;;;;;;5.27;2.53;;;;;;;13.75;46.36;99743.31;5094952;28;20188;-55
2022/04/16 11:11:08;;;;;;;4.77;2.10;;;;;;;14.11;47.28;99750.47;5094121;28;20179;-54
2022/04/16 11:13:36;;;;;;;3.77;2.73;;;;;;;14.29;46.63;99750.53;5095096;28;20201;-54
2022/04/16 11:16:03;;;;;;;4.00;2.20;;;;;;;14.97;45.48;99769.44;5094605;28;20207;-55
2022/04/16 11:18:38;;;;;;;4.00;2.50;;;;;;;15.00;44.94;99745.47;5094723;28;20188;-53
2022/04/16 11:21:08;;;;;;;3.33;2.93;;;;;;;15.05;45.38;99751.09;5094015;28;20262;-54
2022/04/16 11:23:41;;;;;;;4.43;2.63;;;;;;;15.21;45.17;99755.69;5094731;28;20242;-55
2022/04/16 11:34:30;;;;;;;4.40;2.40;;;;;;;14.15;45.28;99752.69;5094463;28;20186;-55
2022/04/16 11:36:58;;;;;;;3.63;2.50;;;;;;;14.34;45.67;99745.66;5094242;28;20210;-54
2022/04/16 11:39:26;;;;;;;5.37;3.37;;;;;;;14.31;45.36;99738.06;5094643;28;20287;-55
2022/04/16 11:41:57;;;;;;;3.63;2.70;;;;;;;13.88;47.61;99750.84;5093640;28;20552;-55
2022/04/16 11:44:32;;;;;;;4.17;2.70;;;;;;;13.88;48.42;99753.47;5094016;28;20185;-54
2022/04/16 11:47:00;;;;;;;4.80;3.57;;;;;;;13.53;47.52;99742.69;5094800;28;20274;-54
2022/04/16 11:49:27;;;;;;;4.27;3.33;;;;;;;13.34;48.63;99745.31;5094063;28;20249;-55
2022/04/16 11:51:54;;;;;;;5.97;3.30;;;;;;;13.14;48.89;99748.00;5093564;28;20185;-53
2022/04/16 11:54:28;;;;;;;5.27;3.57;;;;;;;13.26;49.70;99751.28;5094033;28;20189;-55
2022/04/16 11:56:56;;;;;;;4.07;2.93;;;;;;;13.60;48.75;99745.59;5094132;28;20659;-54
2022/04/16 11:59:24;;;;;;;6.10;3.17;;;;;;;14.06;47.01;99742.22;5093941;28;20190;-54
2022/04/16 12:01:59;;;;;;;4.73;3.00;;;;;;;14.36;46.37;99754.19;5093133;28;20190;-55